createdAt,value
2018-02-05T00:01:01.512Z,35.15
2018-02-05T00:02:04.764Z,35.13
2018-02-05T00:03:07.242Z,32.78
2018-02-05T00:04:09.734Z,35.58
2018-02-05T00:05:12.237Z,35.28
2018-02-05T00:06:14.724Z,34.33
2018-02-05T00:07:17.226Z,34.70
2018-02-05T00:08:19.710Z,33.53
2018-02-05T00:09:23.711Z,33.47
2018-02-05T00:10:26.962Z,36.15
2018-02-05T00:11:30.375Z,29.70
2018-02-05T00:12:32.863Z,36.33
2018-02-05T00:13:36.136Z,35.00
2018-02-05T00:14:38.603Z,34.20
2018-02-05T00:15:41.083Z,31.40
2018-02-05T00:16:44.331Z,32.80
2018-02-05T00:17:46.812Z,33.72
2018-02-05T00:18:49.309Z,36.00
2018-02-05T00:19:51.816Z,33.53
2018-02-05T00:20:54.284Z,32.85
2018-02-05T00:21:56.792Z,27.48
2018-02-05T00:22:59.261Z,33.33
2018-02-05T00:24:01.742Z,33.88
2018-02-05T00:25:04.235Z,33.15
2018-02-05T00:26:07.522Z,34.22
2018-02-05T00:27:10.014Z,27.87
2018-02-05T00:28:13.419Z,34.78
2018-02-05T00:29:15.903Z,31.10
2018-02-05T00:30:20.651Z,31.00
2018-02-05T00:31:23.140Z,30.75
2018-02-05T00:32:25.615Z,30.88
2018-02-05T00:33:28.089Z,33.13
2018-02-05T00:34:30.558Z,37.40
2018-02-05T00:35:33.025Z,30.52
2018-02-05T00:36:35.524Z,30.55
2018-02-05T00:37:38.042Z,34.25
2018-02-05T00:38:40.539Z,31.15
2018-02-05T00:39:43.026Z,32.53
2018-02-05T00:40:46.297Z,34.40
2018-02-05T00:41:48.797Z,34.55
2018-02-05T00:42:51.278Z,34.03
2018-02-05T00:43:53.781Z,34.97
2018-02-05T00:44:56.252Z,33.17
2018-02-05T00:45:58.882Z,34.85
2018-02-05T00:47:01.359Z,31.95
2018-02-05T00:48:03.833Z,37.17
2018-02-05T00:49:06.297Z,36.25
2018-02-05T00:50:08.773Z,40.92
2018-02-05T00:51:11.285Z,39.00
2018-02-05T00:52:14.531Z,36.00
2018-02-05T00:53:17.004Z,40.70
2018-02-05T00:54:19.486Z,37.47
2018-02-05T00:55:21.982Z,36.10
2018-02-05T00:56:24.461Z,42.47
2018-02-05T00:57:26.968Z,38.03
2018-02-05T00:58:29.436Z,36.10
2018-02-05T00:59:32.697Z,40.00
2018-02-05T01:00:35.193Z,38.55
2018-02-05T01:01:38.447Z,44.97
2018-02-05T01:02:40.953Z,35.72
2018-02-05T01:03:44.233Z,38.95
2018-02-05T01:04:47.468Z,39.85
2018-02-05T01:05:49.955Z,39.75
2018-02-05T01:06:52.447Z,39.38
2018-02-05T01:07:54.941Z,44.55
2018-02-05T01:08:58.207Z,39.53
2018-02-05T01:10:00.694Z,46.90
2018-02-05T01:11:03.951Z,42.58
2018-02-05T01:12:06.489Z,37.70
2018-02-05T01:13:09.763Z,39.67
2018-02-05T01:14:12.232Z,40.97
2018-02-05T01:15:14.722Z,46.28
2018-02-05T01:16:17.213Z,44.45
2018-02-05T01:17:19.707Z,42.15
2018-02-05T01:18:22.786Z,44.97
2018-02-05T01:19:25.275Z,45.45
2018-02-05T01:20:27.786Z,42.08
2018-02-05T01:21:30.278Z,67.12
2018-02-05T01:22:32.751Z,47.13
2018-02-05T01:23:35.273Z,45.28
2018-02-05T01:24:37.715Z,42.70
2018-02-05T01:25:40.216Z,44.80
2018-02-05T01:26:43.413Z,44.45
2018-02-05T01:27:45.969Z,44.75
2018-02-05T01:28:48.453Z,42.90
2018-02-05T01:29:50.933Z,50.92
2018-02-05T01:30:53.404Z,53.83
2018-02-05T01:31:55.884Z,46.90
2018-02-05T01:32:58.416Z,46.83
2018-02-05T01:34:01.717Z,43.20
2018-02-05T01:35:04.188Z,46.90
2018-02-05T01:36:06.674Z,48.87
2018-02-05T01:37:09.163Z,45.05
2018-02-05T01:38:12.624Z,48.55
2018-02-05T01:39:15.110Z,46.60
2018-02-05T01:40:17.595Z,46.10
2018-02-05T01:41:20.735Z,49.15
2018-02-05T01:42:23.973Z,46.42
2018-02-05T01:43:26.470Z,46.13
2018-02-05T01:44:28.941Z,46.92
2018-02-05T01:45:31.431Z,45.60
2018-02-05T01:46:34.690Z,51.03
2018-02-05T01:47:37.180Z,48.85
2018-02-05T01:48:39.685Z,50.95
2018-02-05T01:49:42.176Z,51.90
2018-02-05T01:50:45.573Z,50.75
2018-02-05T01:51:48.659Z,42.65
2018-02-05T01:52:51.133Z,57.17
2018-02-05T01:53:53.625Z,51.37
2018-02-05T01:54:56.108Z,48.03
2018-02-05T01:55:59.359Z,43.55
2018-02-05T01:57:02.434Z,46.53
2018-02-05T01:58:05.893Z,43.33
2018-02-05T01:59:08.380Z,40.17
2018-02-05T02:00:10.946Z,47.58
2018-02-05T02:01:14.229Z,45.10
2018-02-05T02:02:16.714Z,37.13
2018-02-05T02:03:20.019Z,40.60
2018-02-05T02:04:22.521Z,42.25
2018-02-05T02:05:25.017Z,39.55
2018-02-05T02:06:28.268Z,46.33
2018-02-05T02:07:30.784Z,38.10
2018-02-05T02:08:33.266Z,41.03
2018-02-05T02:09:35.783Z,36.63
2018-02-05T02:10:38.263Z,42.13
2018-02-05T02:11:40.795Z,43.50
2018-02-05T02:12:43.664Z,40.95
2018-02-05T02:13:46.144Z,44.20
2018-02-05T02:14:48.640Z,37.35
2018-02-05T02:15:51.155Z,43.80
2018-02-05T02:16:53.645Z,38.50
2018-02-05T02:17:57.223Z,41.97
2018-02-05T02:18:59.705Z,39.40
2018-02-05T02:20:02.224Z,41.50
2018-02-05T02:21:04.728Z,45.72
2018-02-05T02:22:08.005Z,37.03
2018-02-05T02:23:11.264Z,55.72
2018-02-05T02:24:13.751Z,47.33
2018-02-05T02:25:16.238Z,40.40
2018-02-05T02:26:19.876Z,44.40
2018-02-05T02:27:22.472Z,44.97
2018-02-05T02:28:26.169Z,43.70
2018-02-05T02:29:29.225Z,45.72
2018-02-05T02:30:31.750Z,45.12
2018-02-05T02:31:34.252Z,49.13
2018-02-05T02:32:36.734Z,44.45
2018-02-05T02:33:39.213Z,41.78
2018-02-05T02:34:41.703Z,45.10
2018-02-05T02:35:44.205Z,41.10
2018-02-05T02:36:46.748Z,45.78
2018-02-05T02:37:49.236Z,44.20
2018-02-05T02:38:51.716Z,46.10
2018-02-05T02:39:54.991Z,50.40
2018-02-05T02:40:57.470Z,45.10
2018-02-05T02:41:59.941Z,58.17
2018-02-05T02:43:02.461Z,46.47
2018-02-05T02:44:04.962Z,49.58
2018-02-05T02:45:07.465Z,47.10
2018-02-05T02:46:10.717Z,50.53
2018-02-05T02:47:13.209Z,54.00
2018-02-05T02:48:15.720Z,51.08
2018-02-05T02:49:18.235Z,56.97
2018-02-05T02:50:20.711Z,58.72
2018-02-05T02:51:23.213Z,50.75
2018-02-05T02:52:25.691Z,51.92
2018-02-05T02:53:28.190Z,52.92
2018-02-05T02:54:30.672Z,56.78
2018-02-05T02:55:33.159Z,52.72
2018-02-05T02:56:35.648Z,56.30
2018-02-05T02:57:38.907Z,58.50
2018-02-05T02:58:41.392Z,56.80
2018-02-05T02:59:44.378Z,57.00
2018-02-05T03:00:46.859Z,53.47
2018-02-05T03:01:49.344Z,63.75
2018-02-05T03:02:52.605Z,68.82
2018-02-05T03:03:56.003Z,63.78
2018-02-05T03:04:58.493Z,68.78
2018-02-05T03:06:01.747Z,69.93
2018-02-05T03:07:04.239Z,73.90
2018-02-05T03:08:07.572Z,61.47
2018-02-05T03:09:10.087Z,61.10
2018-02-05T03:10:13.268Z,72.70
2018-02-05T03:11:15.745Z,68.45
2018-02-05T03:12:18.239Z,63.58
2018-02-05T03:13:21.488Z,66.80
2018-02-05T03:14:23.966Z,66.32
2018-02-05T03:15:26.459Z,62.42
2018-02-05T03:16:30.809Z,68.45
2018-02-05T03:17:33.308Z,69.80
2018-02-05T03:18:35.792Z,64.87
2018-02-05T03:19:38.280Z,67.60
2018-02-05T03:20:40.756Z,63.45
2018-02-05T03:21:44.013Z,69.18
2018-02-05T03:22:46.489Z,64.15
2018-02-05T03:23:48.979Z,66.62
2018-02-05T03:24:52.231Z,57.05
2018-02-05T03:25:54.761Z,63.90
2018-02-05T03:26:58.027Z,59.22
2018-02-05T03:28:00.546Z,71.93
2018-02-05T03:29:03.923Z,57.00
2018-02-05T03:30:06.439Z,58.83
2018-02-05T03:31:08.914Z,55.55
2018-02-05T03:32:12.351Z,53.03
2018-02-05T03:33:14.895Z,48.72
2018-02-05T03:34:17.380Z,54.17
2018-02-05T03:35:20.645Z,49.33
2018-02-05T03:36:23.116Z,51.47
2018-02-05T03:37:25.603Z,48.55
2018-02-05T03:38:28.849Z,51.08
2018-02-05T03:39:31.335Z,50.90
2018-02-05T03:40:33.813Z,43.42
2018-02-05T03:41:36.384Z,49.90
2018-02-05T03:42:38.865Z,46.92
2018-02-05T03:43:41.339Z,52.97
2018-02-05T03:44:44.579Z,48.13
2018-02-05T03:45:47.059Z,49.30
2018-02-05T03:46:49.553Z,46.45
2018-02-05T03:47:52.037Z,46.72
2018-02-05T03:48:55.276Z,44.58
2018-02-05T03:49:57.766Z,46.72
2018-02-05T03:51:00.245Z,51.10
2018-02-05T03:52:02.718Z,41.47
2018-02-05T03:53:05.256Z,45.95
2018-02-05T03:54:07.760Z,46.20
2018-02-05T03:55:10.344Z,46.58
2018-02-05T03:56:13.687Z,47.33
2018-02-05T03:57:16.174Z,40.30
2018-02-05T03:58:18.655Z,40.35
2018-02-05T03:59:21.140Z,41.00
2018-02-05T04:00:23.640Z,41.47
2018-02-05T04:01:26.889Z,40.10
2018-02-05T04:02:29.388Z,37.13
2018-02-05T04:03:31.876Z,42.83
2018-02-05T04:04:34.365Z,40.28
2018-02-05T04:05:37.616Z,36.80
2018-02-05T04:06:45.772Z,31.02
2018-02-05T04:07:49.046Z,35.90
2018-02-05T04:08:53.330Z,37.35
2018-02-05T04:09:55.811Z,34.72
2018-02-05T04:10:58.284Z,30.77
2018-02-05T04:12:00.777Z,27.75
2018-02-05T04:13:03.288Z,31.02
2018-02-05T04:14:06.174Z,29.92
2018-02-05T04:15:08.655Z,31.30
2018-02-05T04:16:11.991Z,33.42
2018-02-05T04:17:14.463Z,29.12
2018-02-05T04:18:17.714Z,31.87
2018-02-05T04:19:20.197Z,25.70
2018-02-05T04:20:22.691Z,27.87
2018-02-05T04:21:26.147Z,25.95
2018-02-05T04:22:28.637Z,26.37
2018-02-05T04:23:31.140Z,28.00
2018-02-05T04:24:34.385Z,27.10
2018-02-05T04:25:37.617Z,28.60
2018-02-05T04:26:41.093Z,26.58
2018-02-05T04:27:43.567Z,24.33
2018-02-05T04:28:46.828Z,26.70
2018-02-05T04:29:49.310Z,27.10
2018-02-05T04:30:51.775Z,27.90
2018-02-05T04:31:54.271Z,22.17
2018-02-05T04:32:58.312Z,25.92
2018-02-05T04:34:00.780Z,26.08
2018-02-05T04:35:03.273Z,24.52
2018-02-05T04:36:06.702Z,24.85
2018-02-05T04:37:09.226Z,23.42
2018-02-05T04:38:11.774Z,21.70
2018-02-05T04:39:14.998Z,24.80
2018-02-05T04:40:17.487Z,22.08
2018-02-05T04:41:19.968Z,22.98
2018-02-05T04:42:22.453Z,22.98
2018-02-05T04:43:25.744Z,22.87
2018-02-05T04:44:29.000Z,24.50
2018-02-05T04:45:31.478Z,25.05
2018-02-05T04:46:33.959Z,20.17
2018-02-05T04:47:36.434Z,21.42
2018-02-05T04:48:38.931Z,21.27
2018-02-05T04:49:41.401Z,22.67
2018-02-05T04:50:44.633Z,25.15
2018-02-05T04:51:47.372Z,21.90
2018-02-05T04:52:49.867Z,20.95
2018-02-05T04:53:53.136Z,20.58
2018-02-05T04:54:55.659Z,19.62
2018-02-05T04:55:58.208Z,21.00
2018-02-05T04:57:00.683Z,21.55
2018-02-05T04:58:03.189Z,21.95
2018-02-05T04:59:05.661Z,18.30
2018-02-05T05:00:10.130Z,19.00
2018-02-05T05:01:12.612Z,19.27
2018-02-05T05:02:15.106Z,22.48
2018-02-05T05:03:17.611Z,21.12
2018-02-05T05:04:20.186Z,24.98
2018-02-05T05:05:22.655Z,18.35
2018-02-05T05:06:25.141Z,21.17
2018-02-05T05:07:27.599Z,20.05
2018-02-05T05:08:30.085Z,20.05
2018-02-05T05:09:33.221Z,18.95
2018-02-05T05:10:36.511Z,19.27
2018-02-05T05:11:38.960Z,21.10
2018-02-05T05:12:41.427Z,19.02
2018-02-05T05:13:43.904Z,21.25
2018-02-05T05:14:46.380Z,19.90
2018-02-05T05:15:48.872Z,18.85
2018-02-05T05:16:52.147Z,19.23
2018-02-05T05:17:54.631Z,22.90
2018-02-05T05:18:57.122Z,25.05
2018-02-05T05:19:59.605Z,19.58
2018-02-05T05:21:02.078Z,18.33
2018-02-05T05:22:04.544Z,21.20
2018-02-05T05:23:07.047Z,19.20
2018-02-05T05:24:09.553Z,18.15
2018-02-05T05:25:12.816Z,21.30
2018-02-05T05:26:15.290Z,21.52
2018-02-05T05:27:17.767Z,20.65
2018-02-05T05:28:21.249Z,19.30
2018-02-05T05:29:24.472Z,20.17
2018-02-05T05:30:26.976Z,19.40
2018-02-05T05:31:29.441Z,20.12
2018-02-05T05:32:31.938Z,21.08
2018-02-05T05:33:34.424Z,21.05
2018-02-05T05:34:36.906Z,19.85
2018-02-05T05:35:39.408Z,20.00
2018-02-05T05:36:41.909Z,20.10
2018-02-05T05:37:44.426Z,19.37
2018-02-05T05:38:47.671Z,21.42
2018-02-05T05:39:50.192Z,22.60
2018-02-05T05:40:52.676Z,21.90
2018-02-05T05:41:55.159Z,22.77
2018-02-05T05:42:57.830Z,21.62
2018-02-05T05:44:01.086Z,17.50
2018-02-05T05:45:04.338Z,22.17
2018-02-05T05:46:06.852Z,24.60
2018-02-05T05:47:10.508Z,21.60
2018-02-05T05:48:13.590Z,22.77
2018-02-05T05:49:16.063Z,23.50
2018-02-05T05:50:18.573Z,21.73
2018-02-05T05:51:21.985Z,22.40
2018-02-05T05:52:24.452Z,23.08
2018-02-05T05:53:26.940Z,24.25
2018-02-05T05:54:29.457Z,24.23
2018-02-05T05:55:32.725Z,23.00
2018-02-05T05:56:35.776Z,21.95
2018-02-05T05:57:38.251Z,27.42
2018-02-05T05:58:40.727Z,22.60
2018-02-05T05:59:43.200Z,23.85
2018-02-05T06:00:45.702Z,25.67
2018-02-05T06:01:48.193Z,22.10
2018-02-05T06:02:51.442Z,19.40
2018-02-05T06:03:53.924Z,24.50
2018-02-05T06:04:56.426Z,26.92
2018-02-05T06:05:59.677Z,26.17
2018-02-05T06:07:02.169Z,25.40
2018-02-05T06:08:04.680Z,24.12
2018-02-05T06:09:07.164Z,25.55
2018-02-05T06:10:09.673Z,24.12
2018-02-05T06:11:12.165Z,23.15
2018-02-05T06:12:15.424Z,21.70
2018-02-05T06:13:17.917Z,25.30
2018-02-05T06:14:21.180Z,26.42
2018-02-05T06:15:23.659Z,23.15
2018-02-05T06:16:26.144Z,24.35
2018-02-05T06:17:29.553Z,22.23
2018-02-05T06:18:32.039Z,27.08
2018-02-05T06:19:35.288Z,29.15
2018-02-05T06:20:37.775Z,28.23
2018-02-05T06:21:41.034Z,25.48
2018-02-05T06:22:43.536Z,24.75
2018-02-05T06:23:46.825Z,26.15
2018-02-05T06:24:49.299Z,24.23
2018-02-05T06:25:51.812Z,27.17
2018-02-05T06:26:54.287Z,28.40
2018-02-05T06:27:56.776Z,29.70
2018-02-05T06:28:59.312Z,27.95
2018-02-05T06:30:01.803Z,28.80
2018-02-05T06:31:04.328Z,24.85
2018-02-05T06:32:06.841Z,29.17
2018-02-05T06:33:09.350Z,25.45
2018-02-05T06:34:12.642Z,32.70
2018-02-05T06:35:15.364Z,26.33
2018-02-05T06:36:17.852Z,30.80
2018-02-05T06:37:21.485Z,30.58
2018-02-05T06:38:24.726Z,26.95
2018-02-05T06:39:27.499Z,25.77
2018-02-05T06:40:29.992Z,34.03
2018-02-05T06:41:32.456Z,29.90
2018-02-05T06:42:34.966Z,31.50
2018-02-05T06:43:37.452Z,29.98
2018-02-05T06:44:39.938Z,30.27
2018-02-05T06:45:43.221Z,31.90
2018-02-05T06:46:46.652Z,32.58
2018-02-05T06:47:49.702Z,28.60
2018-02-05T06:48:52.177Z,31.48
2018-02-05T06:49:55.504Z,30.35
2018-02-05T06:51:09.797Z,30.48
2018-02-05T06:52:23.928Z,30.45
2018-02-05T06:55:17.106Z,31.23
2018-02-05T06:56:25.252Z,28.23
2018-02-05T06:57:27.759Z,28.40
2018-02-05T06:58:30.259Z,32.22
2018-02-05T06:59:33.528Z,27.52
2018-02-05T07:00:36.027Z,30.95
2018-02-05T07:01:40.088Z,36.15
2018-02-05T07:02:42.608Z,29.98
2018-02-05T07:03:45.866Z,31.52
2018-02-05T07:04:48.375Z,33.65
2018-02-05T07:05:51.705Z,28.00
2018-02-05T07:06:55.023Z,29.67
2018-02-05T07:07:57.511Z,32.55
2018-02-05T07:09:00.820Z,34.92
2018-02-05T07:10:03.322Z,35.58
2018-02-05T07:11:05.836Z,37.10
2018-02-05T07:12:08.335Z,32.03
2018-02-05T07:13:11.021Z,26.70
2018-02-05T07:14:13.548Z,27.80
2018-02-05T07:15:16.156Z,37.58
2018-02-05T07:16:19.385Z,28.60
2018-02-05T07:17:21.892Z,33.95
2018-02-05T07:18:25.159Z,30.88
2018-02-05T07:19:27.662Z,36.88
2018-02-05T07:20:30.148Z,37.53
2018-02-05T07:21:32.637Z,28.67
2018-02-05T07:22:35.137Z,34.90
2018-02-05T07:23:37.621Z,37.10
2018-02-05T07:24:40.878Z,40.30
2018-02-05T07:25:43.406Z,35.53
2018-02-05T07:26:45.908Z,30.15
2018-02-05T07:27:48.398Z,35.25
2018-02-05T07:28:50.909Z,39.75
2018-02-05T07:29:54.184Z,32.58
2018-02-05T07:30:57.440Z,35.00
2018-02-05T07:32:01.022Z,35.90
2018-02-05T07:33:03.513Z,34.17
2018-02-05T07:34:06.052Z,37.20
2018-02-05T07:35:09.127Z,39.78
2018-02-05T07:36:11.652Z,28.85
2018-02-05T07:37:14.166Z,32.90
2018-02-05T07:38:16.687Z,37.53
2018-02-05T07:39:19.963Z,37.55
2018-02-05T07:40:22.474Z,30.23
2018-02-05T07:41:25.017Z,32.35
2018-02-05T07:42:27.478Z,34.42
2018-02-05T07:43:30.819Z,40.17
2018-02-05T07:44:33.320Z,35.70
2018-02-05T07:45:35.822Z,33.10
2018-02-05T07:46:38.313Z,36.42
2018-02-05T07:47:43.550Z,37.75
2018-02-05T07:48:46.062Z,33.60
2018-02-05T07:49:48.609Z,30.60
2018-02-05T07:50:51.140Z,36.58
2018-02-05T07:51:53.676Z,31.92
2018-02-05T07:52:56.183Z,36.05
2018-02-05T07:53:58.981Z,41.60
2018-02-05T07:55:01.458Z,34.30
2018-02-05T07:56:04.666Z,34.90
2018-02-05T07:57:07.151Z,32.17
2018-02-05T07:58:10.154Z,34.85
2018-02-05T07:59:12.657Z,41.63
2018-02-05T08:00:15.932Z,35.58
2018-02-05T08:01:19.199Z,32.83
2018-02-05T08:02:21.692Z,33.22
2018-02-05T08:03:24.972Z,38.67
2018-02-05T08:04:28.290Z,36.25
2018-02-05T08:05:30.832Z,41.83
2018-02-05T08:06:34.085Z,38.72
2018-02-05T08:07:36.561Z,31.40
2018-02-05T08:08:39.852Z,35.17
2018-02-05T08:09:42.329Z,36.65
2018-02-05T08:10:44.860Z,35.75
2018-02-05T08:11:48.038Z,38.63
2018-02-05T08:12:50.535Z,34.00
2018-02-05T08:13:53.013Z,37.40
2018-02-05T08:14:55.506Z,41.78
2018-02-05T08:15:58.030Z,36.72
2018-02-05T08:17:00.536Z,38.03
2018-02-05T08:18:03.027Z,34.50
2018-02-05T08:19:06.336Z,41.63
2018-02-05T08:20:08.833Z,37.58
2018-02-05T08:21:11.376Z,34.45
2018-02-05T08:22:13.891Z,42.75
2018-02-05T08:23:16.422Z,38.72
2018-02-05T08:24:18.942Z,38.58
2018-02-05T08:25:22.280Z,39.03
2018-02-05T08:26:24.858Z,36.63
2018-02-05T08:27:27.967Z,33.63
2018-02-05T08:28:30.466Z,31.87
2018-02-05T08:29:33.086Z,31.70
2018-02-05T08:30:35.598Z,36.92
2018-02-05T08:31:38.105Z,36.03
2018-02-05T08:32:41.385Z,33.65
2018-02-05T08:33:44.700Z,33.33
2018-02-05T08:34:47.217Z,31.87
2018-02-05T08:35:49.737Z,30.10
2018-02-05T08:36:52.315Z,36.58
2018-02-05T08:37:54.894Z,37.60
2018-02-05T08:38:57.398Z,30.48
2018-02-05T08:39:59.893Z,29.20
2018-02-05T08:41:02.431Z,31.30
2018-02-05T08:42:04.943Z,33.63
2018-02-05T08:43:08.222Z,30.60
2018-02-05T08:44:10.739Z,32.05
2018-02-05T08:45:13.229Z,37.85
2018-02-05T08:46:15.719Z,36.70
2018-02-05T08:47:18.209Z,31.02
2018-02-05T08:48:20.713Z,34.35
2018-02-05T08:49:23.211Z,30.58
2018-02-05T08:50:25.708Z,27.87
2018-02-05T08:51:28.220Z,32.35
2018-02-05T08:52:30.722Z,26.90
2018-02-05T08:53:33.265Z,35.17
2018-02-05T08:54:35.757Z,33.60
2018-02-05T08:55:38.266Z,33.38
2018-02-05T08:56:41.481Z,28.27
2018-02-05T08:57:44.100Z,30.37
2018-02-05T08:58:46.602Z,27.48
2018-02-05T08:59:49.879Z,25.90
2018-02-05T09:00:53.171Z,26.92
2018-02-05T09:01:55.663Z,27.87
2018-02-05T09:02:58.911Z,26.92
2018-02-05T09:04:01.428Z,30.17
2018-02-05T09:05:03.941Z,25.95
2018-02-05T09:06:06.442Z,34.33
2018-02-05T09:07:08.968Z,28.73
2018-02-05T09:08:11.458Z,28.60
2018-02-05T09:09:13.962Z,31.40
2018-02-05T09:10:17.240Z,25.48
2018-02-05T09:11:19.732Z,27.50
2018-02-05T09:12:22.988Z,26.33
2018-02-05T09:13:25.472Z,30.30
2018-02-05T09:14:28.745Z,29.55
2018-02-05T09:15:31.357Z,26.12
2018-02-05T09:16:34.633Z,24.90
2018-02-05T09:17:37.936Z,31.52
2018-02-05T09:18:40.441Z,31.87
2018-02-05T09:19:43.043Z,25.00
2018-02-05T09:20:45.501Z,36.70
2018-02-05T09:21:48.535Z,27.40
2018-02-05T09:22:51.045Z,34.38
2018-02-05T09:23:53.584Z,26.70
2018-02-05T09:24:56.111Z,31.37
2018-02-05T09:25:59.430Z,28.25
2018-02-05T09:27:01.936Z,27.87
2018-02-05T09:28:04.466Z,30.48
2018-02-05T09:29:06.968Z,29.63
2018-02-05T09:30:09.536Z,27.55
2018-02-05T09:31:12.143Z,33.17
2018-02-05T09:32:14.678Z,33.67
2018-02-05T09:33:17.269Z,30.33
2018-02-05T09:34:19.760Z,28.87
2018-02-05T09:35:23.799Z,27.87
2018-02-05T09:36:26.320Z,27.20
2018-02-05T09:37:29.720Z,28.38
2018-02-05T09:38:32.204Z,28.58
2018-02-05T09:39:34.734Z,31.80
2018-02-05T09:40:38.998Z,29.17
2018-02-05T09:41:42.249Z,31.55
2018-02-05T09:42:45.385Z,28.65
2018-02-05T09:43:47.911Z,30.08
2018-02-05T09:44:50.422Z,27.17
2018-02-05T09:45:53.715Z,33.08
2018-02-05T09:46:56.242Z,28.40
2018-02-05T09:47:58.731Z,25.42
2018-02-05T09:49:02.027Z,29.35
2018-02-05T09:50:05.279Z,28.35
2018-02-05T09:51:07.801Z,27.73
2018-02-05T09:52:10.380Z,29.92
2018-02-05T09:53:12.948Z,31.30
2018-02-05T09:54:15.539Z,26.92
2018-02-05T09:55:18.066Z,30.00
2018-02-05T09:56:20.568Z,25.98
2018-02-05T09:57:23.074Z,28.62
2018-02-05T09:58:25.568Z,25.73
2018-02-05T09:59:29.000Z,23.08
2018-02-05T10:00:31.510Z,25.52
2018-02-05T10:01:34.105Z,30.00
2018-02-05T10:02:36.611Z,21.40
2018-02-05T10:03:39.117Z,32.38
2018-02-05T10:04:41.608Z,24.45
2018-02-05T10:05:44.110Z,26.12
2018-02-05T10:06:48.533Z,26.33
2018-02-05T10:07:51.018Z,33.42
2018-02-05T10:08:54.009Z,23.23
2018-02-05T10:09:56.526Z,31.80
2018-02-05T10:10:59.778Z,25.88
2018-02-05T10:12:02.320Z,30.20
2018-02-05T10:13:04.885Z,25.95
2018-02-05T10:14:07.461Z,29.77
2018-02-05T10:15:09.977Z,21.00
2018-02-05T10:16:13.738Z,29.45
2018-02-05T10:17:16.269Z,25.55
2018-02-05T10:18:18.873Z,25.65
2018-02-05T10:19:21.374Z,27.75
2018-02-05T10:20:23.914Z,28.25
2018-02-05T10:21:27.196Z,27.17
2018-02-05T10:22:30.570Z,23.98
2018-02-05T10:23:33.165Z,24.80
2018-02-05T10:24:35.684Z,28.58
2018-02-05T10:25:38.172Z,28.23
2018-02-05T10:26:40.732Z,25.55
2018-02-05T10:27:43.308Z,28.02
2018-02-05T10:28:46.619Z,23.92
2018-02-05T10:29:49.864Z,25.88
2018-02-05T10:30:52.367Z,25.80
2018-02-05T10:31:55.023Z,28.62
2018-02-05T10:32:57.494Z,29.40
2018-02-05T10:33:59.984Z,26.95
2018-02-05T10:35:03.255Z,28.87
2018-02-05T10:36:05.776Z,27.08
2018-02-05T10:37:08.274Z,25.70
2018-02-05T10:38:10.793Z,24.42
2018-02-05T10:39:14.061Z,28.05
2018-02-05T10:40:16.666Z,28.87
2018-02-05T10:41:19.193Z,22.73
2018-02-05T10:42:21.678Z,22.55
2018-02-05T10:43:24.213Z,33.92
2018-02-05T10:44:26.718Z,26.12
2018-02-05T10:45:29.214Z,25.80
2018-02-05T10:46:31.717Z,26.45
2018-02-05T10:47:34.340Z,25.05
2018-02-05T10:48:37.618Z,29.45
2018-02-05T10:49:40.102Z,24.08
2018-02-05T10:50:43.358Z,24.27
2018-02-05T10:51:45.842Z,23.20
2018-02-05T10:52:48.338Z,28.23
2018-02-05T10:53:51.631Z,26.80
2018-02-05T10:54:54.926Z,23.17
2018-02-05T10:55:57.496Z,23.67
2018-02-05T10:57:00.095Z,25.15
2018-02-05T10:58:02.575Z,22.17
2018-02-05T10:59:05.077Z,22.27
2018-02-05T11:00:07.681Z,27.08
2018-02-05T11:01:10.192Z,24.27
2018-02-05T11:02:13.225Z,26.00
2018-02-05T11:03:15.929Z,25.12
2018-02-05T11:04:18.458Z,24.40
2018-02-05T11:05:21.744Z,25.62
2018-02-05T11:06:25.043Z,23.35
2018-02-05T11:07:29.294Z,24.90
2018-02-05T11:08:31.825Z,21.62
2018-02-05T11:09:35.234Z,25.30
2018-02-05T11:10:37.772Z,28.48
2018-02-05T11:11:40.292Z,29.63
2018-02-05T11:12:42.819Z,26.23
2018-02-05T11:13:46.098Z,26.65
2018-02-05T11:14:48.624Z,22.33
2018-02-05T11:15:52.024Z,22.25
2018-02-05T11:16:54.546Z,24.17
2018-02-05T11:17:57.827Z,21.90
2018-02-05T11:19:01.081Z,27.02
2018-02-05T11:20:03.710Z,26.08
2018-02-05T11:21:06.218Z,26.45
2018-02-05T11:22:08.716Z,28.80
2018-02-05T11:23:11.216Z,21.40
2018-02-05T11:24:14.528Z,27.23
2018-02-05T11:25:17.077Z,25.73
2018-02-05T11:26:20.356Z,27.55
2018-02-05T11:27:23.626Z,24.90
2018-02-05T11:28:27.639Z,24.80
2018-02-05T11:29:30.902Z,25.20
2018-02-05T11:30:33.628Z,24.83
2018-02-05T11:31:36.129Z,25.62
2018-02-05T11:32:38.615Z,26.33
2018-02-05T11:33:41.103Z,20.40
2018-02-05T11:34:43.604Z,22.50
2018-02-05T11:35:46.124Z,25.75
2018-02-05T11:36:48.607Z,23.00
2018-02-05T11:37:51.221Z,25.65
2018-02-05T11:38:53.710Z,20.30
2018-02-05T11:39:56.275Z,21.10
2018-02-05T11:40:59.551Z,23.58
2018-02-05T11:42:02.048Z,20.75
2018-02-05T11:43:04.546Z,19.80
2018-02-05T11:44:07.164Z,24.55
2018-02-05T11:45:10.625Z,19.17
2018-02-05T11:46:13.901Z,19.73
2018-02-05T11:47:16.398Z,21.35
2018-02-05T11:48:19.730Z,21.02
2018-02-05T11:49:22.235Z,20.08
2018-02-05T11:50:24.727Z,21.17
2018-02-05T11:51:28.053Z,20.60
2018-02-05T11:52:30.540Z,19.02
2018-02-05T11:53:33.020Z,19.55
2018-02-05T11:54:35.644Z,24.45
2018-02-05T11:55:38.150Z,24.48
2018-02-05T11:56:40.799Z,22.77
2018-02-05T11:57:43.310Z,20.75
2018-02-05T11:58:45.833Z,18.50
2018-02-05T11:59:48.371Z,16.87
2018-02-05T12:00:50.889Z,18.33
2018-02-05T12:01:54.364Z,16.60
2018-02-05T12:02:57.591Z,21.98
2018-02-05T12:04:00.099Z,24.75
2018-02-05T12:05:02.599Z,19.77
2018-02-05T12:06:06.602Z,18.45
2018-02-05T12:07:09.239Z,14.90
2018-02-05T12:08:11.756Z,19.58
2018-02-05T12:09:14.253Z,21.55
2018-02-05T12:10:17.537Z,17.90
2018-02-05T12:11:20.809Z,18.42
2018-02-05T12:12:24.945Z,16.20
2018-02-05T12:13:27.444Z,17.65
2018-02-05T12:14:29.983Z,21.42
2018-02-05T12:15:32.558Z,18.48
2018-02-05T12:16:35.041Z,16.50
2018-02-05T12:17:37.556Z,17.73
2018-02-05T12:18:40.067Z,15.95
2018-02-05T12:19:42.591Z,21.23
2018-02-05T12:20:45.675Z,22.77
2018-02-05T12:21:48.620Z,19.80
2018-02-05T12:22:51.134Z,18.42
2018-02-05T12:23:53.648Z,22.52
2018-02-05T12:24:56.151Z,26.33
2018-02-05T12:25:58.671Z,21.08
2018-02-05T12:27:01.930Z,18.20
2018-02-05T12:28:04.423Z,20.08
2018-02-05T12:29:07.744Z,18.65
2018-02-05T12:30:10.321Z,18.87
2018-02-05T12:31:12.845Z,19.55
2018-02-05T12:32:16.172Z,23.40
2018-02-05T12:33:18.682Z,27.30
2018-02-05T12:34:21.227Z,22.42
2018-02-05T12:35:23.712Z,17.30
2018-02-05T12:36:26.715Z,18.75
2018-02-05T12:37:29.328Z,21.02
2018-02-05T12:38:31.828Z,21.62
2018-02-05T12:39:34.348Z,17.73
2018-02-05T12:40:37.968Z,19.05
2018-02-05T12:41:40.729Z,18.70
2018-02-05T12:42:43.297Z,22.27
2018-02-05T12:43:46.583Z,20.05
2018-02-05T12:44:49.867Z,23.12
2018-02-05T12:45:53.168Z,21.50
2018-02-05T12:46:56.446Z,20.70
2018-02-05T12:47:59.755Z,19.37
2018-02-05T12:49:02.276Z,20.80
2018-02-05T12:50:04.790Z,19.05
2018-02-05T12:51:07.307Z,21.77
2018-02-05T12:52:09.795Z,33.67
2018-02-05T12:53:12.323Z,23.58
2018-02-05T12:54:14.839Z,23.33
2018-02-05T12:55:17.386Z,18.95
2018-02-05T12:56:20.035Z,20.85
2018-02-05T12:57:22.531Z,24.45
2018-02-05T12:58:25.570Z,17.80
2018-02-05T12:59:28.077Z,19.42
2018-02-05T13:02:15.673Z,19.50
2018-02-05T13:03:24.527Z,20.67
2018-02-05T13:04:32.666Z,21.37
2018-02-05T13:05:35.158Z,19.90
2018-02-05T13:06:41.260Z,22.45
2018-02-05T13:07:43.762Z,20.25
2018-02-05T13:08:46.298Z,20.17
2018-02-05T13:09:48.780Z,29.05
2018-02-05T13:10:51.289Z,21.55
2018-02-05T13:11:54.624Z,19.05
2018-02-05T13:12:57.115Z,28.42
2018-02-05T13:13:59.660Z,20.67
2018-02-05T13:15:03.085Z,22.45
2018-02-05T13:16:05.600Z,18.67
2018-02-05T13:17:08.129Z,19.67
2018-02-05T13:18:11.191Z,20.15
2018-02-05T13:19:13.704Z,26.98
2018-02-05T13:20:17.545Z,19.77
2018-02-05T13:21:20.047Z,17.45
2018-02-05T13:22:22.591Z,23.42
2018-02-05T13:23:26.371Z,24.80
2018-02-05T13:24:28.874Z,20.98
2018-02-05T13:25:31.372Z,24.48
2018-02-05T13:26:33.854Z,20.60
2018-02-05T13:27:36.394Z,21.40
2018-02-05T13:28:38.930Z,20.50
2018-02-05T13:29:42.444Z,19.90
2018-02-05T13:30:44.969Z,18.87
2018-02-05T13:31:48.227Z,21.77
2018-02-05T13:32:50.849Z,20.12